Polo, South Dakota
Current Conditions -  °F | °C
As of 10:44 PM on Saturday 20 Dec 2014 (Local Time) from KHON Reporting Station
Haze Haze  
Wind Chill: 22°   Ceiling: 400
Heat Index: 30°   Visibility: 5mi
Dew Point: 29°   Wind: 9mph
Humidity: 96%   Direction: 180°S
Pressure: 29.92"   Gusts: NA
Location:  44.8386°N, 99.1119°W
Report Text: KHON 210444Z AUTO 18008KT 5SM BR OVC004 M01/M02 A2992 RMK AO2 T10111017
Loading
Personal Weather Stations






























Interactive Weather Map New forecast layout! Learn more

10-Day Weather Forecast

Advertisements
Track Severe Weather on mobile